Time;durP1;ratioP1;P1;durP2;ratioP2;P2;SDS_P1;SDS_P2;PMS_P1;PMS_P2;Temp;Humidity;BMP_temperature;BMP_pressure;BME280_temperature;BME280_humidity;BME280_pressure;Samples;Min_cycle;Max_cycle;Signal;HPM_P1;HPM_P2
2023/06/30 00:01:13;;;;;;;6.85;3.00;;;;;;;16.58;85.15;101410.56;4985352;28;20034;-48
2023/06/30 00:03:38;;;;;;;8.63;3.08;;;;;;;16.60;85.29;101415.78;4999875;28;20399;-48
2023/06/30 00:06:04;;;;;;;8.07;2.58;;;;;;;16.55;85.26;101416.22;5000863;28;20133;-47
2023/06/30 00:08:29;;;;;;;8.43;3.00;;;;;;;16.48;85.61;101408.91;4997490;28;20018;-47
2023/06/30 00:10:54;;;;;;;4.72;2.70;;;;;;;16.48;85.31;101412.41;4994714;28;20101;-47
2023/06/30 00:13:20;;;;;;;7.82;2.95;;;;;;;16.38;85.38;101407.06;4996356;28;20030;-47
2023/06/30 00:15:45;;;;;;;7.55;2.55;;;;;;;16.39;84.43;101413.28;4994162;28;20030;-47
2023/06/30 00:18:10;;;;;;;7.07;3.00;;;;;;;16.33;84.86;101417.34;4990908;28;20122;-47
2023/06/30 00:20:36;;;;;;;5.80;2.35;;;;;;;16.33;85.04;101413.84;4998261;28;20505;-47
2023/06/30 00:23:01;;;;;;;8.27;2.53;;;;;;;16.28;84.62;101414.25;4996561;28;20034;-47
2023/06/30 00:25:26;;;;;;;9.43;3.10;;;;;;;16.23;84.82;101417.34;4992959;28;20034;-47
2023/06/30 00:27:51;;;;;;;8.25;2.58;;;;;;;16.21;84.40;101405.94;4996762;28;20037;-47
2023/06/30 00:30:17;;;;;;;9.10;2.72;;;;;;;16.17;85.07;101412.56;4994882;28;20061;-47
2023/06/30 00:32:42;;;;;;;8.07;2.47;;;;;;;16.17;84.98;101409.03;4998940;28;20030;-47
2023/06/30 00:35:07;;;;;;;7.97;3.05;;;;;;;16.09;85.10;101407.06;5002703;28;20339;-47
2023/06/30 00:37:33;;;;;;;5.55;2.70;;;;;;;16.11;85.00;101405.09;5000851;28;20463;-47
2023/06/30 00:39:58;;;;;;;7.57;2.80;;;;;;;16.02;85.17;101401.41;4984330;28;20033;-49
2023/06/30 00:42:23;;;;;;;8.20;2.80;;;;;;;15.94;85.39;101403.94;4999516;28;20057;-47
2023/06/30 00:44:49;;;;;;;7.20;2.85;;;;;;;15.89;85.52;101399.00;5002609;28;20348;-47
2023/06/30 00:47:14;;;;;;;7.00;3.10;;;;;;;15.83;85.70;101393.34;5002363;28;20104;-46
2023/06/30 00:49:40;;;;;;;9.60;3.20;;;;;;;15.72;86.53;101397.81;5003132;28;20487;-47
2023/06/30 00:52:06;;;;;;;10.45;3.22;;;;;;;15.71;86.21;101396.09;4994846;28;20041;-48
2023/06/30 00:54:31;;;;;;;7.25;3.17;;;;;;;15.75;86.08;101403.88;5002380;28;20101;-49
2023/06/30 00:56:58;;;;;;;12.55;3.50;;;;;;;15.73;86.05;101407.53;4996425;28;20038;-47
2023/06/30 00:59:23;;;;;;;10.30;2.95;;;;;;;15.66;86.34;101401.03;5001025;28;20498;-46
2023/06/30 01:01:58;;;;;;;11.77;3.42;;;;;;;15.65;86.68;101403.84;5006382;28;20030;-47
2023/06/30 01:04:34;;;;;;;8.85;3.17;;;;;;;15.65;86.67;101399.31;4997982;28;20565;-46
2023/06/30 01:07:12;;;;;;;7.22;2.97;;;;;;;15.65;86.27;101399.31;5002422;28;20026;-47
2023/06/30 01:09:44;;;;;;;7.68;3.13;;;;;;;15.55;87.59;101403.81;4997856;28;20031;-47
2023/06/30 01:12:09;;;;;;;6.82;2.83;;;;;;;15.56;87.23;101397.50;5002351;28;20034;-49
2023/06/30 01:14:37;;;;;;;6.35;2.80;;;;;;;15.53;87.18;101397.75;4998282;28;20081;-47
2023/06/30 01:17:04;;;;;;;9.05;2.97;;;;;;;15.58;87.44;101400.03;4999412;28;20049;-47
2023/06/30 01:19:38;;;;;;;9.55;2.92;;;;;;;15.51;87.04;101397.88;4998332;28;20022;-49
2023/06/30 01:22:13;;;;;;;7.97;3.00;;;;;;;15.50;86.97;101406.91;4996558;28;20034;-48
2023/06/30 01:24:41;;;;;;;7.07;2.85;;;;;;;15.53;87.51;101405.78;5001472;28;20121;-50
2023/06/30 01:27:06;;;;;;;12.52;3.00;;;;;;;15.53;87.11;101408.47;4999406;28;20383;-47
2023/06/30 01:29:32;;;;;;;9.43;3.10;;;;;;;15.50;86.89;101411.41;4999239;28;20049;-46
2023/06/30 01:31:58;;;;;;;7.85;2.83;;;;;;;15.49;86.79;101407.06;5001642;28;20034;-46
2023/06/30 01:34:24;;;;;;;12.88;2.95;;;;;;;15.44;87.17;101404.78;5001810;28;20479;-47
2023/06/30 01:36:49;;;;;;;8.88;3.33;;;;;;;15.44;86.73;101411.97;4998804;28;20117;-47
2023/06/30 01:39:15;;;;;;;8.10;2.88;;;;;;;15.42;87.07;101412.09;5004147;28;20375;-46
2023/06/30 01:41:42;;;;;;;10.00;2.70;;;;;;;15.44;87.16;101404.78;5000082;28;20109;-46
2023/06/30 01:44:08;;;;;;;8.38;2.80;;;;;;;15.42;87.11;101397.84;5002014;28;20065;-49
2023/06/30 01:46:33;;;;;;;9.32;2.63;;;;;;;15.30;87.06;101389.06;4998165;28;20026;-47
2023/06/30 01:48:59;;;;;;;8.23;2.88;;;;;;;15.30;87.19;101395.28;5001444;28;20018;-47
2023/06/30 01:51:24;;;;;;;7.75;2.88;;;;;;;15.23;87.34;101385.25;4999315;28;20034;-47
2023/06/30 01:53:50;;;;;;;11.18;3.13;;;;;;;15.21;86.81;101384.56;4998240;28;20084;-46
2023/06/30 01:56:15;;;;;;;11.82;3.10;;;;;;;15.16;87.35;101383.13;5000191;28;20054;-49
2023/06/30 01:58:41;;;;;;;9.30;2.90;;;;;;;15.15;86.98;101385.91;5004239;28;20498;-47
2023/06/30 02:01:06;;;;;;;9.77;3.35;;;;;;;15.07;87.20;101380.38;4998248;28;20110;-47
2023/06/30 02:03:31;;;;;;;8.95;3.13;;;;;;;15.05;86.78;101385.88;5001853;28;20038;-47
2023/06/30 02:05:57;;;;;;;10.73;3.20;;;;;;;14.97;87.08;101389.22;5001235;28;20022;-46
2023/06/30 02:08:22;;;;;;;10.05;2.85;;;;;;;14.95;87.21;101385.84;4999991;28;20030;-46
2023/06/30 02:10:47;;;;;;;8.18;3.30;;;;;;;14.91;87.05;101379.06;4999973;28;20026;-46
2023/06/30 02:13:13;;;;;;;7.28;2.90;;;;;;;14.90;86.99;101384.53;5001457;28;20036;-48
2023/06/30 02:15:38;;;;;;;9.73;3.03;;;;;;;14.82;86.99;101377.16;4996842;28;20038;-46
2023/06/30 02:18:03;;;;;;;6.75;2.58;;;;;;;14.77;87.02;101380.25;4999571;28;20554;-47
2023/06/30 02:20:29;;;;;;;8.57;2.85;;;;;;;14.73;87.23;101381.47;4996654;28;20496;-46
2023/06/30 02:22:54;;;;;;;7.63;2.90;;;;;;;14.70;87.63;101383.56;4999722;28;20026;-47
2023/06/30 02:25:20;;;;;;;7.22;3.05;;;;;;;14.62;87.67;101392.25;4999292;28;20984;-46
2023/06/30 02:27:45;;;;;;;11.85;3.13;;;;;;;14.60;87.46;101387.06;4998915;28;20025;-47
2023/06/30 02:30:12;;;;;;;9.05;3.20;;;;;;;14.55;87.10;101385.69;4997879;28;20027;-46
2023/06/30 02:32:38;;;;;;;7.53;3.35;;;;;;;14.54;87.27;101389.38;5001499;28;20499;-47
2023/06/30 02:35:08;;;;;;;11.27;3.40;;;;;;;14.42;88.00;101384.06;4997546;28;20105;-46
2023/06/30 02:37:33;;;;;;;8.15;3.15;;;;;;;14.47;87.64;101393.50;4997509;28;20027;-47
2023/06/30 02:39:58;;;;;;;6.75;3.10;;;;;;;14.43;87.85;101400.94;5002512;28;20036;-46
2023/06/30 02:42:24;;;;;;;8.82;3.53;;;;;;;14.38;87.77;101401.31;4999611;28;20113;-46
2023/06/30 02:44:49;;;;;;;7.97;3.22;;;;;;;14.36;88.01;101407.78;4997904;28;20093;-46
2023/06/30 02:47:15;;;;;;;7.05;3.20;;;;;;;14.35;87.96;101409.59;4999493;28;20505;-46
2023/06/30 02:49:40;;;;;;;6.55;2.90;;;;;;;14.29;88.15;101418.16;5000449;28;20026;-46
2023/06/30 02:52:06;;;;;;;8.98;3.28;;;;;;;14.27;88.16;101421.91;4993936;28;20022;-47
2023/06/30 02:54:33;;;;;;;9.50;3.63;;;;;;;14.21;88.86;101426.78;4998811;28;20042;-49
2023/06/30 02:56:58;;;;;;;8.20;3.58;;;;;;;14.21;88.74;101425.94;5000678;28;20101;-47
2023/06/30 02:59:23;;;;;;;5.97;3.15;;;;;;;14.16;88.26;101422.81;5002143;28;20505;-46
2023/06/30 03:01:49;;;;;;;8.50;3.45;;;;;;;14.14;88.04;101412.25;4999807;28;20083;-47
2023/06/30 03:04:14;;;;;;;10.18;3.70;;;;;;;14.09;88.50;101419.81;5000332;28;20032;-47
2023/06/30 03:06:40;;;;;;;9.75;3.30;;;;;;;14.06;88.41;101420.88;4999451;28;20029;-47
2023/06/30 03:09:05;;;;;;;8.43;3.53;;;;;;;14.02;88.73;101413.25;4997097;28;20030;-46
2023/06/30 03:11:30;;;;;;;11.00;3.75;;;;;;;14.02;88.40;101421.25;5000419;28;20028;-46
2023/06/30 03:13:56;;;;;;;7.30;3.63;;;;;;;13.95;88.31;101417.41;5014416;28;20041;-46
2023/06/30 03:16:21;;;;;;;8.43;3.70;;;;;;;13.91;88.15;101410.63;5000470;28;20487;-46
2023/06/30 03:18:46;;;;;;;12.57;3.83;;;;;;;13.88;89.10;101414.38;5002900;28;20567;-47
2023/06/30 03:21:12;;;;;;;9.43;3.65;;;;;;;13.82;89.37;101417.53;4996908;28;20114;-46
2023/06/30 03:23:37;;;;;;;8.18;3.45;;;;;;;13.78;89.44;101408.09;4999055;28;20077;-46
2023/06/30 03:26:02;;;;;;;9.20;3.50;;;;;;;13.79;89.82;101410.66;4998193;28;20026;-46
2023/06/30 03:28:28;;;;;;;7.95;3.70;;;;;;;13.70;89.75;101406.03;4997902;28;20065;-46
2023/06/30 03:30:53;;;;;;;8.90;3.70;;;;;;;13.71;89.86;101404.25;4996026;28;20022;-46
2023/06/30 03:33:18;;;;;;;7.43;3.67;;;;;;;13.64;90.09;101406.56;4997658;28;20050;-46
2023/06/30 03:35:44;;;;;;;10.95;4.28;;;;;;;13.55;90.39;101400.13;4997743;28;20441;-47
2023/06/30 03:38:09;;;;;;;7.93;3.78;;;;;;;13.55;90.57;101400.13;5001640;28;20033;-48
2023/06/30 03:40:34;;;;;;;8.60;3.80;;;;;;;13.50;91.25;101395.16;4999238;28;20026;-48
2023/06/30 03:43:00;;;;;;;13.02;4.10;;;;;;;13.53;91.35;101402.06;4999373;28;20547;-46
2023/06/30 03:45:25;;;;;;;10.90;4.75;;;;;;;13.48;91.36;101398.94;5003336;28;20383;-47
2023/06/30 03:47:50;;;;;;;9.40;4.22;;;;;;;13.40;92.03;101396.03;5000046;28;20061;-47
2023/06/30 03:50:15;;;;;;;9.50;3.88;;;;;;;13.49;92.01;101403.31;4999678;28;20077;-47
2023/06/30 03:52:41;;;;;;;10.18;3.90;;;;;;;13.44;92.19;101395.66;4999166;28;20030;-47
2023/06/30 03:55:06;;;;;;;11.07;4.25;;;;;;;13.41;92.16;101393.22;4997014;28;20026;-46
2023/06/30 03:57:32;;;;;;;10.52;4.30;;;;;;;13.42;92.63;101388.72;5000034;28;20037;-47
2023/06/30 03:59:57;;;;;;;8.82;4.20;;;;;;;13.46;92.12;101391.03;4997093;28;20165;-46
2023/06/30 04:02:23;;;;;;;12.45;4.60;;;;;;;13.40;92.96;101393.34;4996076;28;20026;-46
2023/06/30 04:04:48;;;;;;;7.13;4.20;;;;;;;13.41;92.53;101390.56;4997498;28;20423;-46
2023/06/30 04:07:13;;;;;;;8.18;4.07;;;;;;;13.41;92.22;101390.56;4998832;28;20037;-46
2023/06/30 04:09:39;;;;;;;9.32;4.28;;;;;;;13.43;92.00;101385.94;5001373;28;20037;-47
2023/06/30 04:12:05;;;;;;;6.72;3.90;;;;;;;13.39;92.09;101397.84;5003335;28;20049;-46
2023/06/30 04:14:30;;;;;;;5.57;4.18;;;;;;;13.42;92.58;101397.59;4999682;28;20460;-45
2023/06/30 04:16:55;;;;;;;12.15;4.40;;;;;;;13.46;92.39;101407.06;5003539;28;20030;-46
2023/06/30 04:19:21;;;;;;;8.85;4.40;;;;;;;13.46;92.85;101404.38;5003680;28;20387;-47
2023/06/30 04:21:47;;;;;;;9.13;4.53;;;;;;;13.47;92.65;101399.88;5004181;28;20032;-46
2023/06/30 04:24:12;;;;;;;12.40;4.82;;;;;;;13.45;92.53;101401.84;4998075;28;20026;-48
2023/06/30 04:26:38;;;;;;;12.52;5.15;;;;;;;13.46;92.79;101407.06;5005755;28;20551;-46
2023/06/30 04:29:03;;;;;;;11.80;4.65;;;;;;;13.51;92.33;101402.19;5004552;28;20523;-47
2023/06/30 04:31:28;;;;;;;11.07;4.60;;;;;;;13.50;92.81;101402.31;5001656;28;20083;-46
2023/06/30 04:33:54;;;;;;;11.05;4.47;;;;;;;13.51;92.79;101401.34;5004228;28;20125;-47
2023/06/30 04:36:20;;;;;;;8.15;4.38;;;;;;;13.53;91.87;101407.41;5005546;28;20120;-47
2023/06/30 04:38:48;;;;;;;10.00;4.55;;;;;;;13.51;92.24;101396.00;5006054;28;20109;-47
2023/06/30 04:41:15;;;;;;;8.05;4.10;;;;;;;13.55;92.10;101399.28;4998058;28;20073;-51
2023/06/30 04:43:40;;;;;;;10.20;4.18;;;;;;;13.58;91.91;101399.03;5001325;28;20025;-47
2023/06/30 04:46:06;;;;;;;10.45;5.25;;;;;;;13.62;92.31;101401.34;5002776;28;20034;-47
2023/06/30 04:48:32;;;;;;;6.82;4.10;;;;;;;13.67;92.03;101404.50;5006298;28;20023;-46
2023/06/30 04:50:57;;;;;;;9.63;4.63;;;;;;;13.68;92.01;101403.50;5003686;28;20075;-46
2023/06/30 04:53:22;;;;;;;8.60;4.40;;;;;;;13.79;91.98;101401.78;5002578;28;20049;-47
2023/06/30 04:55:49;;;;;;;8.18;4.30;;;;;;;13.84;91.85;101411.13;5002452;28;20089;-46
2023/06/30 04:58:14;;;;;;;8.52;4.43;;;;;;;13.93;91.06;101408.69;4999509;28;20030;-46
2023/06/30 05:00:39;;;;;;;11.55;4.75;;;;;;;13.99;91.67;101406.34;4999673;28;20021;-47
2023/06/30 05:03:05;;;;;;;11.07;4.78;;;;;;;14.11;91.55;101400.97;4999670;28;20023;-46
2023/06/30 05:05:31;;;;;;;8.95;4.47;;;;;;;14.20;91.06;101402.88;5002372;28;20059;-47
2023/06/30 05:07:56;;;;;;;10.27;4.93;;;;;;;14.32;90.92;101401.00;5002275;28;20515;-47
2023/06/30 05:10:21;;;;;;;6.75;4.75;;;;;;;14.50;89.73;101401.28;5003310;28;20038;-47
2023/06/30 05:12:48;;;;;;;8.60;4.28;;;;;;;14.58;89.47;101402.31;4999683;28;20026;-47
2023/06/30 05:15:13;;;;;;;8.85;4.45;;;;;;;14.71;89.14;101395.97;5002464;28;20419;-46
2023/06/30 05:17:39;;;;;;;8.50;4.90;;;;;;;14.86;87.97;101391.16;5002106;28;20076;-46
2023/06/30 05:20:08;;;;;;;8.40;4.80;;;;;;;14.96;87.34;101392.88;5002295;28;20452;-47
2023/06/30 05:22:33;;;;;;;9.45;4.70;;;;;;;15.05;86.48;101398.41;4999304;28;20027;-47
2023/06/30 05:24:58;;;;;;;7.30;4.40;;;;;;;15.07;86.93;101399.97;5004862;28;20038;-47
2023/06/30 05:27:24;;;;;;;11.52;4.50;;;;;;;15.16;86.12;101401.00;5004940;28;20053;-47
2023/06/30 05:29:49;;;;;;;10.63;4.68;;;;;;;15.13;85.95;101401.25;5005609;28;20387;-47
2023/06/30 05:32:14;;;;;;;7.47;4.50;;;;;;;15.29;86.00;101400.78;5004034;28;20367;-47
2023/06/30 05:34:42;;;;;;;10.32;4.20;;;;;;;15.41;85.02;101401.53;5006114;28;20073;-46
2023/06/30 05:37:07;;;;;;;11.73;4.95;;;;;;;15.51;84.21;101397.06;5001216;28;20038;-47
2023/06/30 05:39:32;;;;;;;9.10;4.30;;;;;;;15.73;84.25;101404.84;5003285;28;20045;-47
2023/06/30 05:41:58;;;;;;;10.73;4.90;;;;;;;15.88;83.70;101399.13;5005615;28;20388;-47
2023/06/30 05:44:23;;;;;;;9.88;4.22;;;;;;;16.09;82.74;101399.03;5004890;28;20023;-47
2023/06/30 05:46:49;;;;;;;8.68;3.92;;;;;;;16.27;81.50;101405.38;4997929;28;20065;-47
2023/06/30 05:49:14;;;;;;;8.55;4.15;;;;;;;16.50;79.61;101405.06;4999792;28;20026;-54
2023/06/30 05:51:40;;;;;;;6.68;3.50;;;;;;;16.67;78.51;101406.19;5004525;28;20026;-47
2023/06/30 05:54:05;;;;;;;11.18;4.07;;;;;;;16.83;79.03;101408.28;4998024;28;20049;-48
2023/06/30 05:56:31;;;;;;;14.63;4.20;;;;;;;17.04;77.57;101404.56;5005507;28;20101;-47
2023/06/30 05:58:57;;;;;;;12.45;4.05;;;;;;;17.19;75.97;101403.97;4994641;28;20108;-46
2023/06/30 06:01:23;;;;;;;11.75;4.07;;;;;;;17.38;75.39;101397.63;4996720;28;20480;-47
2023/06/30 06:03:49;;;;;;;7.30;3.67;;;;;;;17.65;74.53;101406.72;5003815;28;20057;-47
2023/06/30 06:06:14;;;;;;;9.52;3.65;;;;;;;17.83;74.24;101404.03;5003312;28;20030;-47
2023/06/30 06:08:48;;;;;;;10.82;3.50;;;;;;;18.07;73.54;101395.44;5003190;28;20498;-47
2023/06/30 06:11:14;;;;;;;7.28;3.30;;;;;;;18.18;71.27;101398.88;5002194;28;20038;-47
2023/06/30 06:13:39;;;;;;;8.45;3.00;;;;;;;18.45;70.09;101397.94;4994464;28;20069;-48
2023/06/30 06:16:07;;;;;;;9.20;3.47;;;;;;;18.61;69.62;101397.22;4997601;28;20456;-47
2023/06/30 06:18:33;;;;;;;10.82;3.17;;;;;;;18.82;69.72;101396.88;5000253;28;20488;-47
2023/06/30 06:20:59;;;;;;;8.27;3.13;;;;;;;18.99;68.30;101401.38;4994382;28;20052;-47
2023/06/30 06:23:24;;;;;;;8.80;2.92;;;;;;;19.17;67.71;101397.78;4999981;28;20051;-50
2023/06/30 06:25:50;;;;;;;13.45;3.55;;;;;;;19.47;66.59;101403.63;4999096;28;20034;-48
2023/06/30 06:28:16;;;;;;;6.88;3.50;;;;;;;19.62;66.13;101415.47;5001293;28;20110;-46
2023/06/30 06:30:41;;;;;;;10.40;3.28;;;;;;;19.88;66.58;101410.00;4997997;28;20034;-47
2023/06/30 06:33:07;;;;;;;8.60;2.80;;;;;;;20.01;62.99;101412.25;4997209;28;20116;-46
2023/06/30 06:35:33;;;;;;;5.47;2.80;;;;;;;20.18;62.25;101413.09;4995691;28;20102;-46
2023/06/30 06:38:00;;;;;;;8.80;2.97;;;;;;;20.41;61.73;101417.84;4997164;28;20373;-46
2023/06/30 06:40:25;;;;;;;6.80;2.95;;;;;;;20.52;61.87;101418.34;4992386;28;20038;-47
2023/06/30 06:42:50;;;;;;;7.18;2.83;;;;;;;20.77;60.88;101412.13;4992537;28;20018;-48
2023/06/30 06:45:17;;;;;;;7.82;3.08;;;;;;;20.87;60.45;101416.31;4994086;28;20041;-47
2023/06/30 06:48:16;;;;;;;10.13;2.75;;;;;;;21.13;61.96;101403.59;4996332;28;20081;-47
2023/06/30 06:50:42;;;;;;;8.05;2.80;;;;;;;21.29;59.09;101410.81;4992777;28;20113;-47
2023/06/30 06:53:08;;;;;;;7.00;2.47;;;;;;;21.44;56.15;101404.50;4991785;28;20161;-47
2023/06/30 06:55:33;;;;;;;5.00;2.25;;;;;;;21.75;57.24;101405.56;4993089;28;20472;-47
2023/06/30 06:57:59;;;;;;;6.38;2.65;;;;;;;21.91;56.39;101405.47;4993401;28;20033;-46
2023/06/30 07:00:24;;;;;;;5.75;2.10;;;;;;;22.09;54.46;101405.19;4992870;28;20488;-47
2023/06/30 07:02:51;;;;;;;4.20;2.10;;;;;;;22.35;53.76;101402.13;4990421;28;20487;-46
2023/06/30 07:05:16;;;;;;;5.32;2.00;;;;;;;22.56;52.73;101408.72;4977461;28;20035;-46
2023/06/30 07:07:41;;;;;;;5.68;1.88;;;;;;;22.63;51.48;101404.28;4992460;28;20049;-46
2023/06/30 07:10:07;;;;;;;7.15;1.77;;;;;;;22.80;50.26;101404.09;4992469;28;20112;-47
2023/06/30 07:12:33;;;;;;;8.25;2.17;;;;;;;22.84;51.27;101402.72;4990396;28;20045;-46
2023/06/30 07:14:58;;;;;;;6.70;1.75;;;;;;;23.15;49.13;101409.84;4991441;28;20014;-48
2023/06/30 07:17:23;;;;;;;5.55;2.20;;;;;;;23.39;48.46;101404.13;4989361;28;20108;-48
2023/06/30 07:19:49;;;;;;;5.45;1.90;;;;;;;23.55;49.54;101408.53;4998253;28;20053;-47
2023/06/30 07:22:14;;;;;;;4.05;2.20;;;;;;;23.80;46.85;101405.47;4996759;28;20391;-47
2023/06/30 07:24:39;;;;;;;4.97;1.55;;;;;;;24.01;45.45;101401.97;5002952;28;20038;-48
2023/06/30 07:27:05;;;;;;;6.47;2.00;;;;;;;24.16;44.04;101399.19;4999110;28;20022;-48
2023/06/30 07:29:30;;;;;;;4.03;1.52;;;;;;;24.37;43.86;101401.06;5004355;28;20039;-47
2023/06/30 07:31:55;;;;;;;7.70;1.73;;;;;;;24.56;45.03;101407.72;4998843;28;20026;-49
2023/06/30 07:34:23;;;;;;;5.90;1.73;;;;;;;24.71;42.85;101413.06;4995902;28;20381;-49
2023/06/30 07:36:49;;;;;;;5.70;1.60;;;;;;;24.98;42.53;101405.09;4997033;28;20033;-52
2023/06/30 07:39:14;;;;;;;4.28;1.58;;;;;;;24.93;41.89;101411.97;4998655;28;20092;-50
2023/06/30 07:41:40;;;;;;;6.05;1.63;;;;;;;25.25;40.84;101412.38;4996150;28;20031;-49
2023/06/30 07:44:05;;;;;;;5.13;1.43;;;;;;;25.48;41.36;101400.38;4996092;28;20025;-48
2023/06/30 07:46:31;;;;;;;3.33;1.30;;;;;;;25.57;39.58;101410.03;5000607;28;20304;-48
2023/06/30 07:48:56;;;;;;;3.13;1.92;;;;;;;25.80;39.96;101415.13;5001546;28;20018;-47
2023/06/30 07:51:22;;;;;;;4.25;1.52;;;;;;;25.84;38.15;101412.84;5003436;28;20030;-48
2023/06/30 07:53:47;;;;;;;4.05;1.25;;;;;;;26.09;38.37;101407.69;5000563;28;20030;-48
2023/06/30 07:56:12;;;;;;;6.28;1.52;;;;;;;26.16;37.88;101404.97;5002942;28;20490;-48
2023/06/30 07:58:38;;;;;;;4.22;1.30;;;;;;;26.20;37.61;101401.63;4998817;28;20030;-47
2023/06/30 08:01:03;;;;;;;2.60;1.25;;;;;;;26.43;38.02;101399.53;4998132;28;20072;-47
2023/06/30 08:03:29;;;;;;;2.22;1.40;;;;;;;26.43;37.80;101407.72;5000113;28;20034;-48
2023/06/30 08:05:56;;;;;;;4.35;1.60;;;;;;;26.62;37.49;101403.31;5000977;28;20110;-47
2023/06/30 08:08:21;;;;;;;6.10;1.60;;;;;;;26.59;37.72;101401.84;4998243;28;20038;-48
2023/06/30 08:10:47;;;;;;;4.18;1.80;;;;;;;26.73;37.25;101406.28;4996107;28;20052;-48
2023/06/30 08:13:12;;;;;;;7.07;1.70;;;;;;;26.89;36.63;101404.97;5001583;28;20068;-48
2023/06/30 08:15:37;;;;;;;7.25;1.50;;;;;;;27.18;34.97;101408.28;4999445;28;20045;-47
2023/06/30 08:18:03;;;;;;;7.00;1.60;;;;;;;26.92;33.86;101401.00;5000404;28;20057;-48
2023/06/30 08:20:28;;;;;;;4.53;1.63;;;;;;;27.09;33.88;101402.22;4995621;28;20495;-48
2023/06/30 08:22:54;;;;;;;4.90;1.60;;;;;;;27.27;34.28;101398.81;4999641;28;20066;-49
2023/06/30 08:25:23;;;;;;;5.78;1.83;;;;;;;27.41;35.23;101399.66;4993875;28;20054;-49
2023/06/30 08:27:48;;;;;;;3.67;1.33;;;;;;;27.69;34.95;101391.13;5000927;28;20105;-49
2023/06/30 08:30:15;;;;;;;4.93;1.80;;;;;;;27.67;33.49;101385.00;4997847;28;20124;-47
2023/06/30 08:32:40;;;;;;;7.00;1.60;;;;;;;27.70;33.88;101389.22;5001348;28;20309;-49
2023/06/30 08:35:05;;;;;;;3.38;1.40;;;;;;;27.67;33.94;101392.38;5002708;28;20492;-51
2023/06/30 08:37:31;;;;;;;2.47;1.08;;;;;;;27.28;34.00;101400.50;5004045;28;20040;-51
2023/06/30 08:39:56;;;;;;;3.20;1.30;;;;;;;27.48;34.23;101386.81;4998008;28;20022;-50
2023/06/30 08:42:27;;;;;;;4.43;1.60;;;;;;;27.69;35.10;101382.94;4999298;28;20030;-49
2023/06/30 08:44:54;;;;;;;2.90;1.30;;;;;;;27.73;33.54;101380.59;5001891;28;20038;-49
2023/06/30 08:47:24;;;;;;;4.47;1.95;;;;;;;27.97;33.85;101369.97;5001398;28;20026;-49
2023/06/30 08:49:49;;;;;;;4.35;1.30;;;;;;;28.42;33.67;101372.56;5002229;28;20083;-50
2023/06/30 08:52:15;;;;;;;5.30;1.50;;;;;;;28.52;31.71;101372.88;5002752;28;20060;-49
2023/06/30 08:54:41;;;;;;;4.40;1.52;;;;;;;28.27;32.89;101366.59;5001352;28;20025;-49
2023/06/30 08:57:07;;;;;;;3.38;1.42;;;;;;;28.42;31.93;101370.66;4997920;28;20030;-49
2023/06/30 08:59:32;;;;;;;5.35;1.50;;;;;;;28.38;30.35;101363.16;5001295;28;20033;-47
2023/06/30 09:01:58;;;;;;;12.53;1.87;;;;;;;28.51;31.60;101367.63;5000862;28;20060;-47
2023/06/30 09:04:24;;;;;;;10.27;1.60;;;;;;;28.52;31.93;101364.69;5002671;28;20338;-49
2023/06/30 09:06:50;;;;;;;4.65;1.70;;;;;;;28.30;31.15;101358.78;5001147;28;20487;-49
2023/06/30 09:09:25;;;;;;;4.90;1.40;;;;;;;28.57;31.37;101362.13;4998521;28;20081;-49
2023/06/30 09:11:52;;;;;;;6.40;1.52;;;;;;;28.56;31.75;101365.09;4996335;28;20037;-51
2023/06/30 09:14:19;;;;;;;5.13;1.58;;;;;;;28.75;31.04;101366.81;4999361;28;20069;-49
2023/06/30 09:16:45;;;;;;;6.07;1.73;;;;;;;28.90;30.16;101360.13;4999553;28;20041;-48
2023/06/30 09:19:12;;;;;;;4.53;1.88;;;;;;;28.62;28.84;101357.91;5002789;28;20030;-48
2023/06/30 09:21:38;;;;;;;7.50;1.50;;;;;;;28.90;30.04;101350.03;5000083;28;20049;-49
2023/06/30 09:24:03;;;;;;;6.70;2.25;;;;;;;28.89;30.21;101353.81;5000941;28;20038;-49
2023/06/30 09:26:30;;;;;;;2.90;1.40;;;;;;;29.07;30.62;101349.41;5000887;28;20030;-49
2023/06/30 09:28:56;;;;;;;3.47;1.60;;;;;;;28.74;29.45;101367.84;5000476;28;20114;-50
2023/06/30 09:31:30;;;;;;;4.60;1.55;;;;;;;28.73;30.59;101358.00;4998186;28;20026;-49
2023/06/30 09:34:12;;;;;;;3.63;1.25;;;;;;;28.78;30.40;101349.13;4996178;28;20050;-49
2023/06/30 09:36:52;;;;;;;4.53;1.45;;;;;;;29.07;30.56;101346.69;4998024;28;20456;-49
2023/06/30 09:39:18;;;;;;;6.22;1.55;;;;;;;29.09;28.77;101344.56;5002490;28;20403;-49
2023/06/30 09:41:45;;;;;;;2.10;1.17;;;;;;;29.11;29.62;101348.75;5002464;28;20028;-49
2023/06/30 09:44:12;;;;;;;4.35;1.60;;;;;;;29.30;28.34;101341.38;5001916;28;20081;-49
2023/06/30 09:46:50;;;;;;;4.28;1.63;;;;;;;29.19;30.69;101349.53;4993632;28;20101;-49
2023/06/30 09:49:32;;;;;;;5.50;3.67;;;;;;;29.10;29.61;101346.22;4999579;28;20037;-49
2023/06/30 09:52:00;;;;;;;4.50;1.33;;;;;;;28.98;29.73;101344.25;4981513;28;20034;-48
2023/06/30 09:54:26;;;;;;;3.40;1.55;;;;;;;28.81;29.85;101340.44;4995939;28;20451;-48
2023/06/30 09:57:01;;;;;;;6.25;1.60;;;;;;;28.77;30.16;101337.34;4997713;28;20038;-48
2023/06/30 09:59:27;;;;;;;2.55;1.40;;;;;;;29.04;30.45;101345.22;4993673;28;20022;-49
2023/06/30 10:01:54;;;;;;;5.28;1.58;;;;;;;29.01;28.58;101337.50;5001943;28;20472;-49
2023/06/30 10:04:19;;;;;;;4.50;1.50;;;;;;;29.31;28.51;101345.78;4990974;28;20499;-49
2023/06/30 10:06:50;;;;;;;3.72;1.30;;;;;;;29.05;28.95;101341.44;4997442;28;20053;-48
2023/06/30 10:09:19;;;;;;;3.47;1.60;;;;;;;29.12;26.34;101336.72;4993886;28;20030;-49
2023/06/30 10:11:44;;;;;;;;;;;;;;;29.77;31.12;101335.25;4995201;28;20023;-48
2023/06/30 10:14:13;;;;;;;4.72;1.40;;;;;;;29.31;27.67;101334.84;4997328;28;20029;-49
2023/06/30 10:16:40;;;;;;;2.85;1.25;;;;;;;29.52;28.54;101329.91;4998297;28;20022;-49
2023/06/30 10:19:05;;;;;;;7.10;1.40;;;;;;;29.73;27.56;101322.25;5000925;28;20077;-49
2023/06/30 10:21:33;;;;;;;2.60;1.10;;;;;;;29.78;29.02;101323.25;4996607;28;20035;-49
2023/06/30 10:24:01;;;;;;;5.18;1.38;;;;;;;29.69;28.15;101325.47;4996580;28;20126;-49
2023/06/30 10:26:26;;;;;;;2.83;1.58;;;;;;;29.59;29.28;101329.81;4995934;28;20022;-49
2023/06/30 10:28:52;;;;;;;4.10;1.75;;;;;;;29.55;27.36;101326.72;4996898;28;20045;-51
2023/06/30 10:31:17;;;;;;;3.65;1.58;;;;;;;29.47;26.72;101319.66;4999025;28;20030;-51
2023/06/30 10:33:43;;;;;;;3.58;1.40;;;;;;;29.47;27.35;101319.66;5000468;28;20101;-50
2023/06/30 10:36:09;;;;;;;4.78;1.50;;;;;;;29.40;27.57;101318.09;5002970;28;20038;-49
2023/06/30 10:38:36;;;;;;;3.10;1.20;;;;;;;29.66;28.26;101314.97;5001475;28;20026;-50
2023/06/30 10:41:17;;;;;;;7.05;1.60;;;;;;;29.79;28.84;101310.38;5000712;28;20084;-49
2023/06/30 10:44:05;;;;;;;5.00;1.40;;;;;;;30.18;28.58;101308.09;4998341;28;20038;-51
2023/06/30 10:46:41;;;;;;;6.80;1.40;;;;;;;30.34;28.10;101312.00;4996880;28;20451;-51
2023/06/30 10:49:06;;;;;;;3.53;1.38;;;;;;;29.89;27.04;101307.91;4997854;28;20030;-49
2023/06/30 10:51:36;;;;;;;3.10;1.15;;;;;;;29.79;28.27;101307.66;4995146;28;20490;-49
2023/06/30 10:54:01;;;;;;;1.98;1.40;;;;;;;30.00;27.95;101303.53;4995354;28;20031;-49
2023/06/30 10:56:28;;;;;;;4.43;1.40;;;;;;;30.24;27.36;101304.38;4994758;28;20034;-48
2023/06/30 10:58:57;;;;;;;2.35;1.23;;;;;;;30.16;26.72;101296.50;4998938;28;20530;-49
2023/06/30 11:01:22;;;;;;;2.65;1.00;;;;;;;30.49;26.74;101284.97;4996177;28;20026;-49
2023/06/30 11:03:56;;;;;;;2.40;1.40;;;;;;;30.68;28.04;101280.19;4996696;28;20352;-49
2023/06/30 11:06:22;;;;;;;2.88;1.33;;;;;;;30.31;26.48;101287.81;4998740;28;20030;-49
2023/06/30 11:09:02;;;;;;;2.28;1.10;;;;;;;30.27;27.64;101287.47;4992451;28;20525;-49
2023/06/30 11:11:27;;;;;;;4.43;1.48;;;;;;;30.05;27.67;101290.78;4996199;28;20482;-49
2023/06/30 11:14:34;;;;;;;4.37;1.30;;;;;;;30.13;29.04;101281.41;4999669;28;20049;-50
2023/06/30 11:17:05;;;;;;;3.67;1.70;;;;;;;30.14;28.38;101291.25;4994553;28;20300;-49
2023/06/30 11:19:30;;;;;;;5.28;1.50;;;;;;;29.77;28.34;101287.88;5001773;28;20546;-48
2023/06/30 11:22:27;;;;;;;2.22;1.42;;;;;;;30.02;28.84;101282.22;4991512;28;20114;-49